Time,TemperatureF,DewpointF,PressureIn,WindDirection,WindDirectionDegrees,WindSpeedMPH,WindSpeedGustMPH,Humidity,HourlyPrecipIn,Conditions,Clouds,dailyrainin,SoftwareType,DateUTC
2013-03-04 00:06:00,29.6,16.0,30.06,NE,54,2.0,2.0,58,0.00,,,0.00,weatherlink.com 1.10,2013-03-04 05:06:00,
2013-03-04 00:21:00,29.2,16.0,30.06,WNW,288,3.0,3.0,58,0.00,,,0.00,weatherlink.com 1.10,2013-03-04 05:21:00,
2013-03-04 00:35:00,29.0,16.0,30.06,NNE,12,0.0,2.0,59,0.00,,,0.00,weatherlink.com 1.10,2013-03-04 05:35:00,
2013-03-04 00:51:00,29.0,16.0,30.07,North,356,0.0,3.0,58,0.00,,,0.00,weatherlink.com 1.10,2013-03-04 05:51:00,
2013-03-04 01:06:00,28.6,15.0,30.07,ENE,65,0.0,2.0,58,0.00,,,0.00,weatherlink.com 1.10,2013-03-04 06:06:00,
2013-03-04 01:21:00,28.0,16.0,30.08,NW,307,2.0,3.0,61,0.00,,,0.00,weatherlink.com 1.10,2013-03-04 06:21:00,
2013-03-04 01:36:00,28.2,16.0,30.08,SE,131,2.0,2.0,61,0.00,,,0.00,weatherlink.com 1.10,2013-03-04 06:36:00,
2013-03-04 01:51:00,29.1,16.0,30.09,NNE,17,1.0,5.0,58,0.00,,,0.00,weatherlink.com 1.10,2013-03-04 06:51:00,
2013-03-04 02:06:00,29.5,15.0,30.09,NNE,29,2.0,6.0,56,0.00,,,0.00,weatherlink.com 1.10,2013-03-04 07:06:00,
2013-03-04 02:21:00,29.7,15.0,30.09,NW,307,0.0,4.0,55,0.00,,,0.00,weatherlink.com 1.10,2013-03-04 07:21:00,
2013-03-04 02:36:00,29.4,15.0,30.09,SSE,160,1.0,5.0,56,0.00,,,0.00,weatherlink.com 1.10,2013-03-04 07:36:00,
2013-03-04 02:51:00,29.6,16.0,30.09,WSW,243,2.0,5.0,56,0.00,,,0.00,weatherlink.com 1.10,2013-03-04 07:51:00,
2013-03-04 03:06:00,29.4,16.0,30.10,NE,48,0.0,2.0,57,0.00,,,0.00,weatherlink.com 1.10,2013-03-04 08:06:00,
2013-03-04 03:21:00,29.6,16.0,30.10,ESE,115,0.0,5.0,56,0.00,,,0.00,weatherlink.com 1.10,2013-03-04 08:21:00,
2013-03-04 03:36:00,29.2,16.0,30.10,NNE,13,0.0,3.0,57,0.00,,,0.00,weatherlink.com 1.10,2013-03-04 08:36:00,
2013-03-04 03:51:00,28.6,15.0,30.11,NNE,17,0.0,2.0,58,0.00,,,0.00,weatherlink.com 1.10,2013-03-04 08:51:00,
2013-03-04 04:06:00,28.4,16.0,30.11,SSE,150,0.0,2.0,59,0.00,,,0.00,weatherlink.com 1.10,2013-03-04 09:06:00,
2013-03-04 04:21:00,27.8,16.0,30.11,SE,143,1.0,3.0,61,0.00,,,0.00,weatherlink.com 1.10,2013-03-04 09:21:00,
2013-03-04 04:36:00,27.5,16.0,30.11,ENE,61,0.0,1.0,63,0.00,,,0.00,weatherlink.com 1.10,2013-03-04 09:36:00,
2013-03-04 04:51:00,26.5,17.0,30.12,ESE,121,1.0,2.0,68,0.00,,,0.00,weatherlink.com 1.10,2013-03-04 09:51:00,
2013-03-04 05:07:00,26.7,17.0,30.13,NW,308,0.0,1.0,67,0.00,,,0.00,weatherlink.com 1.10,2013-03-04 10:07:00,
2013-03-04 05:22:00,26.4,16.0,30.14,ESE,106,0.0,2.0,65,0.00,,,0.00,weatherlink.com 1.10,2013-03-04 10:22:00,
2013-03-04 05:37:00,26.1,16.0,30.14,East,82,0.0,3.0,65,0.00,,,0.00,weatherlink.com 1.10,2013-03-04 10:37:00,
2013-03-04 05:52:00,25.0,17.0,30.14,NE,49,0.0,2.0,72,0.00,,,0.00,weatherlink.com 1.10,2013-03-04 10:52:00,
2013-03-04 06:07:00,25.2,16.0,30.14,ENE,67,0.0,1.0,68,0.00,,,0.00,weatherlink.com 1.10,2013-03-04 11:07:00,
2013-03-04 06:22:00,24.8,17.0,30.16,NNE,25,0.0,2.0,72,0.00,,,0.00,weatherlink.com 1.10,2013-03-04 11:22:00,
2013-03-04 06:37:00,24.6,18.0,30.16,North,5,0.0,1.0,75,0.00,,,0.00,weatherlink.com 1.10,2013-03-04 11:37:00,
2013-03-04 06:52:00,23.1,18.0,30.16,North,350,0.0,1.0,79,0.00,,,0.00,weatherlink.com 1.10,2013-03-04 11:52:00,
2013-03-04 07:07:00,23.0,18.0,30.16,SE,131,0.0,2.0,80,0.00,,,0.00,weatherlink.com 1.10,2013-03-04 12:07:00,
2013-03-04 07:22:00,22.8,18.0,30.17,North,356,0.0,2.0,81,0.00,,,0.00,weatherlink.com 1.10,2013-03-04 12:22:00,
2013-03-04 07:37:00,22.8,18.0,30.17,NE,46,0.0,1.0,82,0.00,,,0.00,weatherlink.com 1.10,2013-03-04 12:37:00,
2013-03-04 07:52:00,24.0,17.0,30.17,NE,56,0.0,1.0,76,0.00,,,0.00,weatherlink.com 1.10,2013-03-04 12:52:00,
2013-03-04 08:07:00,26.8,18.0,30.17,East,96,0.0,3.0,69,0.00,,,0.00,weatherlink.com 1.10,2013-03-04 13:07:00,
2013-03-04 08:22:00,28.5,18.0,30.18,ESE,116,0.0,1.0,64,0.00,,,0.00,weatherlink.com 1.10,2013-03-04 13:22:00,
2013-03-04 08:37:00,29.5,18.0,30.18,SE,146,1.0,2.0,63,0.00,,,0.00,weatherlink.com 1.10,2013-03-04 13:37:00,
2013-03-04 08:52:00,30.4,18.0,30.19,NW,314,1.0,3.0,60,0.00,,,0.00,weatherlink.com 1.10,2013-03-04 13:52:00,
2013-03-04 09:07:00,31.6,18.0,30.20,East,100,2.0,4.0,58,0.00,,,0.00,weatherlink.com 1.10,2013-03-04 14:07:00,
2013-03-04 09:22:00,32.3,18.0,30.19,ESE,111,0.0,1.0,57,0.00,,,0.00,weatherlink.com 1.10,2013-03-04 14:22:00,
2013-03-04 09:37:00,33.1,18.0,30.19,South,188,1.0,1.0,55,0.00,,,0.00,weatherlink.com 1.10,2013-03-04 14:37:00,
2013-03-04 09:52:00,34.4,17.0,30.19,NNE,25,0.0,3.0,50,0.00,,,0.00,weatherlink.com 1.10,2013-03-04 14:52:00,
2013-03-04 10:07:00,35.3,16.0,30.19,East,82,1.0,4.0,46,0.00,,,0.00,weatherlink.com 1.10,2013-03-04 15:07:00,
2013-03-04 10:22:00,36.5,18.0,30.19,WNW,297,0.0,4.0,48,0.00,,,0.00,weatherlink.com 1.10,2013-03-04 15:22:00,
2013-03-04 10:37:00,38.0,18.0,30.18,WNW,301,0.0,3.0,44,0.00,,,0.00,weatherlink.com 1.10,2013-03-04 15:37:00,
2013-03-04 10:53:00,39.8,19.0,30.19,NE,41,1.0,3.0,44,0.00,,,0.00,weatherlink.com 1.10,2013-03-04 15:53:00,
2013-03-04 11:08:00,40.8,19.0,30.18,NNE,17,1.0,4.0,42,0.00,,,0.00,weatherlink.com 1.10,2013-03-04 16:08:00,
2013-03-04 11:23:00,41.6,16.0,30.18,North,1,0.0,4.0,35,0.00,,,0.00,weatherlink.com 1.10,2013-03-04 16:23:00,
2013-03-04 11:38:00,43.0,18.0,30.17,NW,309,1.0,3.0,36,0.00,,,0.00,weatherlink.com 1.10,2013-03-04 16:38:00,
2013-03-04 11:53:00,44.7,18.0,30.17,North,351,2.0,5.0,35,0.00,,,0.00,weatherlink.com 1.10,2013-03-04 16:53:00,
2013-03-04 12:08:00,45.9,18.0,30.17,WNW,293,3.0,4.0,33,0.00,,,0.00,weatherlink.com 1.10,2013-03-04 17:08:00,
2013-03-04 12:23:00,46.6,19.0,30.16,WSW,249,2.0,4.0,33,0.00,,,0.00,weatherlink.com 1.10,2013-03-04 17:23:00,
2013-03-04 12:38:00,48.0,20.0,30.16,NE,34,2.0,4.0,33,0.00,,,0.00,weatherlink.com 1.10,2013-03-04 17:38:00,
2013-03-04 12:53:00,48.5,17.0,30.15,ENE,58,1.0,4.0,29,0.00,,,0.00,weatherlink.com 1.10,2013-03-04 17:53:00,
2013-03-04 13:08:00,49.9,19.0,30.14,WNW,293,2.0,4.0,30,0.00,,,0.00,weatherlink.com 1.10,2013-03-04 18:08:00,
2013-03-04 13:23:00,50.1,19.0,30.13,SW,226,1.0,3.0,29,0.00,,,0.00,weatherlink.com 1.10,2013-03-04 18:23:00,
2013-03-04 13:38:00,50.9,19.0,30.12,SSW,198,3.0,4.0,28,0.00,,,0.00,weatherlink.com 1.10,2013-03-04 18:38:00,
2013-03-04 13:53:00,51.4,19.0,30.11,NW,320,2.0,6.0,28,0.00,,,0.00,weatherlink.com 1.10,2013-03-04 18:53:00,
2013-03-04 14:08:00,51.9,20.0,30.10,NW,309,3.0,5.0,29,0.00,,,0.00,weatherlink.com 1.10,2013-03-04 19:08:00,
2013-03-04 14:23:00,53.2,21.0,30.10,West,260,1.0,3.0,28,0.00,,,0.00,weatherlink.com 1.10,2013-03-04 19:23:00,
2013-03-04 14:38:00,53.9,20.0,30.09,NW,312,2.0,4.0,27,0.00,,,0.00,weatherlink.com 1.10,2013-03-04 19:38:00,
2013-03-04 14:53:00,54.8,20.0,30.09,NW,323,2.0,5.0,26,0.00,,,0.00,weatherlink.com 1.10,2013-03-04 19:53:00,
2013-03-04 15:08:00,55.5,20.0,30.09,SW,233,1.0,4.0,25,0.00,,,0.00,weatherlink.com 1.10,2013-03-04 20:08:00,
2013-03-04 15:23:00,55.8,19.0,30.08,SW,215,1.0,5.0,24,0.00,,,0.00,weatherlink.com 1.10,2013-03-04 20:23:00,
2013-03-04 15:38:00,55.2,20.0,30.07,NW,323,1.0,8.0,25,0.00,,,0.00,weatherlink.com 1.10,2013-03-04 20:38:00,
2013-03-04 15:53:00,55.9,20.0,30.07,NW,306,3.0,3.0,25,0.00,,,0.00,weatherlink.com 1.10,2013-03-04 20:53:00,
2013-03-04 16:08:00,56.8,22.0,30.07,WSW,255,0.0,3.0,26,0.00,,,0.00,weatherlink.com 1.10,2013-03-04 21:08:00,
2013-03-04 16:23:00,56.0,21.0,30.07,SW,222,1.0,4.0,26,0.00,,,0.00,weatherlink.com 1.10,2013-03-04 21:23:00,
2013-03-04 16:38:00,55.7,23.0,30.07,SW,222,2.0,7.0,28,0.00,,,0.00,weatherlink.com 1.10,2013-03-04 21:38:00,
2013-03-04 16:53:00,55.1,21.0,30.07,SE,127,5.0,8.0,26,0.00,,,0.00,weatherlink.com 1.10,2013-03-04 21:53:00,
2013-03-04 17:08:00,54.5,21.0,30.07,SW,219,1.0,3.0,27,0.00,,,0.00,weatherlink.com 1.10,2013-03-04 22:08:00,
2013-03-04 17:23:00,53.1,21.0,30.07,SSW,210,1.0,2.0,29,0.00,,,0.00,weatherlink.com 1.10,2013-03-04 22:23:00,
2013-03-04 17:38:00,52.0,21.0,30.08,SSW,210,1.0,1.0,30,0.00,,,0.00,weatherlink.com 1.10,2013-03-04 22:38:00,
2013-03-04 17:54:00,51.5,22.0,30.08,SW,236,0.0,2.0,31,0.00,,,0.00,weatherlink.com 1.10,2013-03-04 22:54:00,
2013-03-04 18:08:00,50.9,22.0,30.08,SSW,204,0.0,4.0,32,0.00,,,0.00,weatherlink.com 1.10,2013-03-04 23:08:00,
2013-03-04 18:23:00,49.9,22.0,30.08,South,183,1.0,1.0,34,0.00,,,0.00,weatherlink.com 1.10,2013-03-04 23:23:00,
2013-03-04 18:38:00,48.5,22.0,30.09,South,184,1.0,1.0,36,0.00,,,0.00,weatherlink.com 1.10,2013-03-04 23:38:00,
2013-03-04 18:53:00,47.2,23.0,30.09,South,183,0.0,1.0,38,0.00,,,0.00,weatherlink.com 1.10,2013-03-04 23:53:00,
2013-03-04 19:08:00,46.8,22.0,30.08,South,183,0.0,1.0,37,0.00,,,0.00,weatherlink.com 1.10,2013-03-05 00:08:00,
2013-03-04 19:23:00,46.1,25.0,30.09,South,183,0.0,1.0,43,0.00,,,0.00,weatherlink.com 1.10,2013-03-05 00:23:00,
2013-03-04 19:38:00,44.6,25.0,30.09,South,183,0.0,0.0,46,0.00,,,0.00,weatherlink.com 1.10,2013-03-05 00:38:00,
2013-03-04 19:53:00,43.8,24.0,30.10,South,183,0.0,0.0,46,0.00,,,0.00,weatherlink.com 1.10,2013-03-05 00:53:00,
2013-03-04 20:08:00,43.2,27.0,30.09,South,184,0.0,1.0,53,0.00,,,0.00,weatherlink.com 1.10,2013-03-05 01:08:00,
2013-03-04 20:23:00,42.6,25.0,30.09,South,183,0.0,1.0,51,0.00,,,0.00,weatherlink.com 1.10,2013-03-05 01:23:00,
2013-03-04 20:39:00,42.2,25.0,30.09,South,183,0.0,0.0,51,0.00,,,0.00,weatherlink.com 1.10,2013-03-05 01:39:00,
2013-03-04 20:54:00,42.0,24.0,30.09,South,183,0.0,1.0,49,0.00,,,0.00,weatherlink.com 1.10,2013-03-05 01:54:00,
2013-03-04 21:09:00,41.7,26.0,30.10,South,184,0.0,1.0,55,0.00,,,0.00,weatherlink.com 1.10,2013-03-05 02:09:00,
2013-03-04 21:24:00,40.8,26.0,30.09,South,183,0.0,0.0,56,0.00,,,0.00,weatherlink.com 1.10,2013-03-05 02:24:00,
2013-03-04 21:39:00,40.2,25.0,30.10,South,183,0.0,1.0,54,0.00,,,0.00,weatherlink.com 1.10,2013-03-05 02:39:00,
2013-03-04 21:54:00,40.5,26.0,30.10,South,183,0.0,1.0,57,0.00,,,0.00,weatherlink.com 1.10,2013-03-05 02:54:00,
2013-03-04 22:09:00,39.9,26.0,30.10,South,183,0.0,0.0,59,0.00,,,0.00,weatherlink.com 1.10,2013-03-05 03:09:00,
2013-03-04 22:24:00,39.5,26.0,30.10,South,183,0.0,1.0,59,0.00,,,0.00,weatherlink.com 1.10,2013-03-05 03:24:00,
2013-03-04 22:39:00,38.8,26.0,30.10,South,183,0.0,1.0,60,0.00,,,0.00,weatherlink.com 1.10,2013-03-05 03:39:00,
2013-03-04 22:54:00,39.7,26.0,30.09,South,183,0.0,1.0,59,0.00,,,0.00,weatherlink.com 1.10,2013-03-05 03:54:00,
2013-03-04 23:09:00,40.0,28.0,30.09,South,183,0.0,0.0,63,0.00,,,0.00,weatherlink.com 1.10,2013-03-05 04:09:00,
2013-03-04 23:24:00,39.4,26.0,30.08,South,183,0.0,0.0,60,0.00,,,0.00,weatherlink.com 1.10,2013-03-05 04:24:00,
2013-03-04 23:39:00,39.6,27.0,30.08,South,183,0.0,0.0,62,0.00,,,0.00,weatherlink.com 1.10,2013-03-05 04:39:00,
2013-03-04 23:54:00,39.4,26.0,30.08,South,183,0.0,0.0,59,0.00,,,0.00,weatherlink.com 1.10,2013-03-05 04:54:00,